Telford, Tennessee
Current Conditions -  °F | °C
As of 12:53 AM on Wednesday 22 Oct 2014 (Local Time) from KTRI Reporting Station
Overcast Overcast  
Wind Chill: 47°   Ceiling: 4800
Heat Index: 47°   Visibility: 10mi
Dew Point: 40°   Wind: 0mph
Humidity: 77%   Direction: NA
Pressure: 30.08"   Gusts: NA
Location:  36.25°N, 82.55°W
Report Text: KTRI 220453Z 00000KT 10SM OVC048 08/04 A3008 RMK AO2 SLP174 T00830044 401830072
Loading
Personal Weather Stations






























Interactive Weather Map
Tropical Storm Tracking
New forecast layout! Learn more

10-Day Weather Forecast

Advertisements
Track Severe Weather on mobile